createdAt,value
2022-10-04T00:01:09.677Z,100.00
2022-10-04T00:03:44.969Z,100.00
2022-10-04T00:06:19.636Z,100.00
2022-10-04T00:08:52.351Z,100.00
2022-10-04T00:11:26.635Z,100.00
2022-10-04T00:13:56.339Z,100.00
2022-10-04T00:16:29.688Z,100.00
2022-10-04T00:19:25.873Z,100.00
2022-10-04T00:22:17.484Z,100.00
2022-10-04T00:25:19.562Z,100.00
2022-10-04T00:28:18.130Z,100.00
2022-10-04T00:30:46.085Z,100.00
2022-10-04T00:33:37.536Z,100.00
2022-10-04T00:36:47.424Z,100.00
2022-10-04T00:39:40.610Z,100.00
2022-10-04T00:42:24.896Z,100.00
2022-10-04T00:44:57.920Z,100.00
2022-10-04T00:47:32.126Z,100.00
2022-10-04T00:50:09.636Z,100.00
2022-10-04T00:52:43.978Z,100.00
2022-10-04T00:55:26.159Z,100.00
2022-10-04T00:58:00.443Z,100.00
2022-10-04T01:00:33.648Z,100.00
2022-10-04T01:03:06.405Z,100.00
2022-10-04T01:05:37.631Z,100.00
2022-10-04T01:08:10.897Z,100.00
2022-10-04T01:10:44.648Z,100.00
2022-10-04T01:13:15.344Z,100.00
2022-10-04T01:15:50.610Z,100.00
2022-10-04T01:18:30.895Z,100.00
2022-10-04T01:21:03.986Z,100.00
2022-10-04T01:23:36.762Z,100.00
2022-10-04T01:26:05.999Z,100.00
2022-10-04T01:28:35.654Z,100.00
2022-10-04T01:31:03.905Z,100.00
2022-10-04T01:33:31.844Z,100.00
2022-10-04T01:35:59.815Z,100.00
2022-10-04T01:38:27.764Z,100.00
2022-10-04T01:41:01.117Z,100.00
2022-10-04T01:43:36.343Z,100.00
2022-10-04T01:46:09.749Z,100.00
2022-10-04T01:48:42.153Z,100.00
2022-10-04T01:51:15.289Z,100.00
2022-10-04T01:53:48.993Z,100.00
2022-10-04T01:56:22.589Z,100.00
2022-10-04T01:58:53.793Z,100.00
2022-10-04T02:01:26.729Z,100.00
2022-10-04T02:04:01.200Z,100.00
2022-10-04T02:06:31.054Z,100.00
2022-10-04T02:08:59.835Z,100.00
2022-10-04T02:11:31.264Z,100.00
2022-10-04T02:14:01.220Z,100.00
2022-10-04T02:16:29.565Z,100.00
2022-10-04T02:18:58.412Z,100.00
2022-10-04T02:21:26.604Z,100.00
2022-10-04T02:23:54.968Z,100.00
2022-10-04T02:26:23.074Z,100.00
2022-10-04T02:28:52.424Z,100.00
2022-10-04T02:31:40.851Z,100.00
2022-10-04T02:34:09.288Z,100.00
2022-10-04T02:36:38.786Z,100.00
2022-10-04T02:39:13.904Z,100.00
2022-10-04T02:41:47.567Z,100.00
2022-10-04T02:44:22.759Z,100.00
2022-10-04T02:46:55.061Z,100.00
2022-10-04T02:49:32.055Z,100.00
2022-10-04T02:52:04.972Z,100.00
2022-10-04T02:54:39.059Z,100.00
2022-10-04T02:57:12.175Z,100.00
2022-10-04T02:59:41.827Z,100.00
2022-10-04T03:02:29.408Z,100.00
2022-10-04T03:05:04.779Z,100.00
2022-10-04T03:07:33.944Z,100.00
2022-10-04T03:10:03.311Z,100.00
2022-10-04T03:12:31.792Z,100.00
2022-10-04T03:15:01.042Z,100.00
2022-10-04T03:17:30.139Z,100.00
2022-10-04T03:19:58.850Z,100.00
2022-10-04T03:22:26.723Z,100.00
2022-10-04T03:24:58.278Z,100.00
2022-10-04T03:27:29.788Z,100.00
2022-10-04T03:29:59.507Z,100.00
2022-10-04T03:32:30.727Z,100.00
2022-10-04T03:35:01.013Z,100.00
2022-10-04T03:37:32.520Z,100.00
2022-10-04T03:40:02.640Z,100.00
2022-10-04T03:42:34.280Z,100.00
2022-10-04T03:45:06.299Z,100.00
2022-10-04T03:47:38.964Z,100.00
2022-10-04T03:50:14.811Z,100.00
2022-10-04T03:52:48.417Z,100.00
2022-10-04T03:55:17.468Z,100.00
2022-10-04T03:57:45.716Z,100.00
2022-10-04T04:00:16.789Z,100.00
2022-10-04T04:02:51.248Z,100.00
2022-10-04T04:05:25.069Z,100.00
2022-10-04T04:08:02.240Z,100.00
2022-10-04T04:10:32.861Z,100.00
2022-10-04T04:13:06.673Z,100.00
2022-10-04T04:15:35.616Z,100.00
2022-10-04T04:18:06.989Z,100.00
2022-10-04T04:20:37.822Z,100.00
2022-10-04T04:23:19.948Z,100.00
2022-10-04T04:26:01.278Z,100.00
2022-10-04T04:28:34.153Z,100.00
2022-10-04T04:31:06.252Z,100.00
2022-10-04T04:33:43.556Z,100.00
2022-10-04T04:36:13.790Z,100.00
2022-10-04T04:39:01.609Z,100.00
2022-10-04T04:41:35.423Z,100.00
2022-10-04T04:44:03.473Z,100.00
2022-10-04T04:46:32.333Z,100.00
2022-10-04T04:49:05.436Z,100.00
2022-10-04T04:51:34.528Z,100.00
2022-10-04T04:54:05.594Z,100.00
2022-10-04T04:56:35.207Z,100.00
2022-10-04T04:59:07.417Z,100.00
2022-10-04T05:01:37.356Z,100.00
2022-10-04T05:04:17.664Z,100.00
2022-10-04T05:06:47.340Z,100.00
2022-10-04T05:09:24.665Z,100.00
2022-10-04T05:11:55.329Z,100.00
2022-10-04T05:14:23.263Z,100.00
2022-10-04T05:16:53.419Z,100.00
2022-10-04T05:19:27.928Z,100.00
2022-10-04T05:21:58.792Z,100.00
2022-10-04T05:24:30.114Z,92.49
2022-10-04T05:27:00.515Z,92.56
2022-10-04T05:29:32.396Z,93.65
2022-10-04T05:32:24.129Z,96.54
2022-10-04T05:34:54.583Z,99.01
2022-10-04T05:37:35.770Z,100.00
2022-10-04T05:40:19.524Z,99.03
2022-10-04T05:42:47.946Z,91.86
2022-10-04T05:45:19.656Z,86.20
2022-10-04T05:47:50.591Z,85.22
2022-10-04T05:50:24.083Z,81.81
2022-10-04T05:52:53.388Z,81.01
2022-10-04T05:55:29.641Z,80.36
2022-10-04T05:58:35.832Z,80.13
2022-10-04T06:01:24.828Z,79.17
2022-10-04T06:04:16.647Z,80.33
2022-10-04T06:06:52.351Z,78.26
2022-10-04T06:09:49.875Z,77.73
2022-10-04T06:12:31.758Z,77.77
2022-10-04T06:15:29.409Z,77.48
2022-10-04T06:18:10.164Z,78.15
2022-10-04T06:21:12.137Z,78.45
2022-10-04T06:23:49.360Z,78.09
2022-10-04T06:26:22.274Z,77.12
2022-10-04T06:28:54.136Z,75.77
2022-10-04T06:31:45.351Z,76.49
2022-10-04T06:34:48.224Z,75.04
2022-10-04T06:37:47.524Z,75.39
2022-10-04T06:40:48.376Z,74.13
2022-10-04T06:43:29.151Z,74.88
2022-10-04T06:46:09.837Z,73.64
2022-10-04T06:49:19.473Z,73.95
2022-10-04T06:52:21.438Z,71.97
2022-10-04T06:55:18.006Z,71.25
2022-10-04T06:58:17.054Z,72.14
2022-10-04T07:00:54.578Z,72.57
2022-10-04T07:03:27.784Z,74.03
2022-10-04T07:05:59.083Z,72.22
2022-10-04T07:08:35.526Z,72.12
2022-10-04T07:11:13.957Z,69.73
2022-10-04T07:13:50.092Z,72.46
2022-10-04T07:16:29.961Z,73.06
2022-10-04T07:19:08.354Z,74.46
2022-10-04T07:21:43.808Z,74.46
2022-10-04T07:24:20.580Z,73.54
2022-10-04T07:26:51.483Z,73.92
2022-10-04T07:29:24.835Z,75.85
2022-10-04T07:32:05.219Z,77.66
2022-10-04T07:34:36.169Z,78.70
2022-10-04T07:37:12.684Z,79.80
2022-10-04T07:39:48.012Z,78.88
2022-10-04T07:42:23.688Z,79.03
2022-10-04T07:45:04.891Z,78.63
2022-10-04T07:47:33.279Z,78.44
2022-10-04T07:50:01.205Z,78.26
2022-10-04T07:52:43.040Z,78.49
2022-10-04T07:55:22.848Z,78.01
2022-10-04T07:58:00.113Z,77.24
2022-10-04T08:00:37.706Z,77.73
2022-10-04T08:03:32.071Z,78.24
2022-10-04T08:06:12.093Z,77.20
2022-10-04T08:09:05.450Z,76.15
2022-10-04T08:11:44.684Z,76.20
2022-10-04T08:14:25.615Z,75.16
2022-10-04T08:17:13.076Z,74.52
2022-10-04T08:19:58.031Z,74.15
2022-10-04T08:22:44.303Z,73.22
2022-10-04T08:25:22.181Z,73.57
2022-10-04T08:28:24.070Z,71.40
2022-10-04T08:31:04.147Z,72.21
2022-10-04T08:33:53.888Z,71.16
2022-10-04T08:36:38.743Z,70.71
2022-10-04T08:39:19.124Z,69.80
2022-10-04T08:42:15.282Z,70.77
2022-10-04T08:45:21.097Z,68.89
2022-10-04T08:48:24.618Z,66.90
2022-10-04T08:51:42.860Z,66.73
2022-10-04T08:54:42.664Z,65.73
2022-10-04T08:57:45.493Z,66.35
2022-10-04T09:00:17.841Z,65.24
2022-10-04T09:03:28.369Z,63.91
2022-10-04T09:06:16.132Z,65.32
2022-10-04T09:09:21.927Z,65.25
2022-10-04T09:12:20.185Z,64.92
2022-10-04T09:15:07.873Z,65.63
2022-10-04T09:17:44.599Z,65.62
2022-10-04T09:20:39.881Z,66.17
2022-10-04T09:23:18.183Z,65.21
2022-10-04T09:25:56.664Z,64.16
2022-10-04T09:29:05.876Z,63.74
2022-10-04T09:32:15.036Z,60.81
2022-10-04T09:35:03.998Z,60.83
2022-10-04T09:37:45.568Z,60.55
2022-10-04T09:40:55.123Z,62.22
2022-10-04T09:43:56.296Z,62.03
2022-10-04T09:46:57.502Z,62.36
2022-10-04T09:49:47.860Z,62.19
2022-10-04T09:52:30.103Z,61.12
2022-10-04T09:55:23.263Z,59.73
2022-10-04T09:58:32.379Z,58.27
2022-10-04T10:01:08.983Z,57.90
2022-10-04T10:04:03.615Z,56.71
2022-10-04T10:06:49.949Z,56.04
2022-10-04T10:09:48.798Z,55.03
2022-10-04T10:13:07.039Z,53.71
2022-10-04T10:15:43.722Z,55.28
2022-10-04T10:18:22.683Z,57.52
2022-10-04T10:21:12.790Z,57.61
2022-10-04T10:23:58.540Z,58.85
2022-10-04T10:26:36.596Z,59.86
2022-10-04T10:29:23.801Z,59.44
2022-10-04T10:32:05.720Z,58.88
2022-10-04T10:34:58.062Z,59.64
2022-10-04T10:37:42.350Z,58.46
2022-10-04T10:40:43.620Z,57.76
2022-10-04T10:43:46.623Z,57.52
2022-10-04T10:46:28.501Z,58.82
2022-10-04T10:49:26.984Z,59.08
2022-10-04T10:52:15.369Z,57.71
2022-10-04T10:55:33.585Z,57.21
2022-10-04T10:58:46.550Z,57.59
2022-10-04T11:01:37.463Z,58.27
2022-10-04T11:04:35.956Z,58.71
2022-10-04T11:07:37.384Z,59.77
2022-10-04T11:10:37.959Z,58.76
2022-10-04T11:13:26.532Z,58.73
2022-10-04T11:16:19.631Z,56.40
2022-10-04T11:19:36.961Z,55.38
2022-10-04T11:22:45.393Z,54.10
2022-10-04T11:25:44.522Z,53.27
2022-10-04T11:28:19.051Z,51.94
2022-10-04T11:31:14.522Z,54.08
2022-10-04T11:34:02.982Z,55.70
2022-10-04T11:36:57.059Z,55.66
2022-10-04T11:39:47.926Z,55.78
2022-10-04T11:42:26.396Z,56.98
2022-10-04T11:45:33.490Z,58.13
2022-10-04T11:48:17.633Z,58.55
2022-10-04T11:51:03.142Z,58.80
2022-10-04T11:54:10.525Z,58.68
2022-10-04T11:57:05.709Z,58.14
2022-10-04T11:59:47.647Z,57.32
2022-10-04T12:02:43.088Z,58.15
2022-10-04T12:05:38.831Z,58.76
2022-10-04T12:08:24.277Z,59.05
2022-10-04T12:19:20.954Z,55.44
2022-10-04T12:21:59.172Z,56.16
2022-10-04T12:24:59.529Z,55.91
2022-10-04T12:27:59.591Z,56.08
2022-10-04T12:30:42.055Z,56.24
2022-10-04T12:33:20.176Z,56.89
2022-10-04T12:35:58.682Z,55.35
2022-10-04T12:38:55.806Z,53.95
2022-10-04T12:41:33.185Z,53.37
2022-10-04T12:44:16.620Z,54.78
2022-10-04T12:46:56.108Z,56.05
2022-10-04T12:49:38.129Z,56.18
2022-10-04T12:52:12.715Z,55.76
2022-10-04T12:54:44.881Z,57.00
2022-10-04T12:57:42.577Z,57.42
2022-10-04T13:00:20.562Z,57.56
2022-10-04T13:03:21.953Z,57.96
2022-10-04T13:06:03.018Z,57.17
2022-10-04T13:08:56.456Z,57.66
2022-10-04T13:11:53.292Z,57.21
2022-10-04T13:15:00.793Z,57.90
2022-10-04T13:17:40.925Z,57.19
2022-10-04T13:20:48.697Z,57.32
2022-10-04T13:23:32.883Z,57.34
2022-10-04T13:26:28.969Z,57.55
2022-10-04T13:29:04.972Z,58.25
2022-10-04T13:31:40.062Z,57.97
2022-10-04T13:34:26.839Z,58.14
2022-10-04T13:37:11.151Z,58.25
2022-10-04T13:40:15.852Z,58.99
2022-10-04T13:43:06.859Z,58.97
2022-10-04T13:45:45.308Z,59.19
2022-10-04T13:48:27.416Z,59.49
2022-10-04T13:51:20.407Z,59.06
2022-10-04T13:54:17.145Z,58.70
2022-10-04T13:57:13.323Z,59.01
2022-10-04T13:59:45.809Z,58.33
2022-10-04T14:02:49.133Z,58.63
2022-10-04T14:05:42.154Z,58.97
2022-10-04T14:08:48.385Z,58.85
2022-10-04T14:12:03.301Z,59.69
2022-10-04T14:15:17.282Z,60.21
2022-10-04T14:18:13.159Z,60.73
2022-10-04T14:21:19.427Z,61.39
2022-10-04T14:24:15.193Z,61.80
2022-10-04T14:27:17.772Z,60.77
2022-10-04T14:30:03.227Z,60.99
2022-10-04T14:33:07.189Z,61.04
2022-10-04T14:35:45.422Z,61.72
2022-10-04T14:38:48.586Z,61.61
2022-10-04T14:41:50.328Z,61.79
2022-10-04T14:44:45.673Z,61.91
2022-10-04T14:48:01.967Z,61.97
2022-10-04T14:50:34.314Z,62.50
2022-10-04T14:53:16.629Z,62.84
2022-10-04T14:56:20.883Z,63.26
2022-10-04T14:59:01.073Z,63.30
2022-10-04T15:01:30.174Z,64.22
2022-10-04T15:04:19.834Z,64.69
2022-10-04T15:06:51.404Z,65.18
2022-10-04T15:09:53.766Z,65.82
2022-10-04T15:13:10.069Z,66.19
2022-10-04T15:15:41.757Z,65.84
2022-10-04T15:18:28.134Z,67.47
2022-10-04T15:21:01.528Z,67.25
2022-10-04T15:23:37.909Z,67.66
2022-10-04T15:26:41.782Z,68.16
2022-10-04T15:29:23.744Z,68.53
2022-10-04T15:32:04.218Z,68.66
2022-10-04T15:34:39.603Z,69.76
2022-10-04T15:37:25.371Z,70.45
2022-10-04T15:40:25.736Z,70.84
2022-10-04T15:43:07.445Z,70.54
2022-10-04T15:46:07.038Z,72.24
2022-10-04T15:48:52.381Z,72.00
2022-10-04T15:51:42.417Z,73.43
2022-10-04T15:54:34.162Z,72.85
2022-10-04T15:57:05.247Z,73.30
2022-10-04T15:59:52.076Z,73.56
2022-10-04T16:02:44.387Z,74.29
2022-10-04T16:05:22.010Z,74.75
2022-10-04T16:08:07.065Z,74.70
2022-10-04T16:11:08.172Z,76.34
2022-10-04T16:14:03.871Z,76.68
2022-10-04T16:17:15.152Z,75.84
2022-10-04T16:20:14.853Z,77.04
2022-10-04T16:23:21.872Z,77.00
2022-10-04T16:25:49.787Z,77.68
2022-10-04T16:28:38.239Z,77.04
2022-10-04T16:31:24.759Z,78.06
2022-10-04T16:34:03.951Z,78.25
2022-10-04T16:36:47.764Z,78.88
2022-10-04T16:39:51.893Z,79.41
2022-10-04T16:42:24.304Z,79.39
2022-10-04T16:44:57.077Z,79.04
2022-10-04T16:47:29.929Z,79.61
2022-10-04T16:50:01.804Z,80.14
2022-10-04T16:52:46.085Z,80.15
2022-10-04T16:55:37.899Z,80.06
2022-10-04T16:58:52.525Z,80.90
2022-10-04T17:01:50.676Z,80.35
2022-10-04T17:04:40.771Z,80.03
2022-10-04T17:07:21.276Z,80.36
2022-10-04T17:09:50.766Z,80.56
2022-10-04T17:12:21.001Z,81.14
2022-10-04T17:14:57.924Z,81.09
2022-10-04T17:17:40.299Z,81.64
2022-10-04T17:20:18.490Z,81.37
2022-10-04T17:22:58.356Z,81.36
2022-10-04T17:25:34.265Z,81.60
2022-10-04T17:28:18.430Z,81.98
2022-10-04T17:30:54.407Z,82.25
2022-10-04T17:33:39.189Z,83.43
2022-10-04T17:36:25.988Z,82.89
2022-10-04T17:39:05.646Z,83.41
2022-10-04T17:41:49.259Z,83.97
2022-10-04T17:44:50.222Z,83.31
2022-10-04T17:47:24.144Z,84.24
2022-10-04T17:50:21.625Z,83.50
2022-10-04T17:53:12.568Z,83.72
2022-10-04T17:55:50.555Z,84.29
2022-10-04T17:58:23.250Z,84.78
2022-10-04T18:00:59.763Z,85.26
2022-10-04T18:03:37.246Z,85.04
2022-10-04T18:06:16.746Z,85.29
2022-10-04T18:08:52.379Z,84.64
2022-10-04T18:11:29.635Z,85.30
2022-10-04T18:14:03.639Z,85.01
2022-10-04T18:16:33.786Z,85.03
2022-10-04T18:19:37.178Z,85.51
2022-10-04T18:22:15.034Z,85.25
2022-10-04T18:24:44.878Z,85.92
2022-10-04T18:27:19.618Z,86.28
2022-10-04T18:30:00.478Z,86.15
2022-10-04T18:32:34.437Z,86.69
2022-10-04T18:35:04.239Z,86.95
2022-10-04T18:37:37.244Z,87.06
2022-10-04T18:40:16.896Z,87.34
2022-10-04T18:42:52.197Z,87.84
2022-10-04T18:45:23.646Z,87.29
2022-10-04T18:47:52.347Z,88.10
2022-10-04T18:50:33.884Z,88.35
2022-10-04T18:53:24.704Z,88.17
2022-10-04T18:56:01.380Z,88.27
2022-10-04T18:59:04.494Z,88.86
2022-10-04T19:02:03.502Z,88.48
2022-10-04T19:04:48.688Z,89.07
2022-10-04T19:07:19.463Z,89.42
2022-10-04T19:10:07.986Z,90.24
2022-10-04T19:12:45.682Z,90.22
2022-10-04T19:15:27.540Z,90.41
2022-10-04T19:18:05.912Z,91.33
2022-10-04T19:20:41.356Z,92.02
2022-10-04T19:23:25.099Z,92.46
2022-10-04T19:26:29.982Z,93.49
2022-10-04T19:28:46.680Z,93.62
2022-10-04T19:31:22.186Z,94.59
2022-10-04T19:33:57.102Z,95.07
2022-10-04T19:36:36.572Z,95.73
2022-10-04T19:39:18.085Z,96.24
2022-10-04T19:41:55.555Z,97.55
2022-10-04T19:44:36.080Z,96.98
2022-10-04T19:47:17.568Z,97.38
2022-10-04T19:49:52.141Z,98.20
2022-10-04T19:52:24.816Z,98.83
2022-10-04T19:54:59.060Z,99.53
2022-10-04T19:57:39.301Z,99.11
2022-10-04T20:00:12.785Z,100.00
2022-10-04T20:02:48.452Z,100.00
2022-10-04T20:05:24.871Z,100.00
2022-10-04T20:07:57.449Z,100.00
2022-10-04T20:10:36.389Z,100.00
2022-10-04T20:13:25.962Z,100.00
2022-10-04T20:15:56.449Z,100.00
2022-10-04T20:18:59.594Z,100.00
2022-10-04T20:21:32.102Z,100.00
2022-10-04T20:24:01.575Z,100.00
2022-10-04T20:27:01.420Z,100.00
2022-10-04T20:29:59.035Z,100.00
2022-10-04T20:32:54.652Z,100.00
2022-10-04T20:36:09.007Z,100.00
2022-10-04T20:39:02.616Z,100.00
2022-10-04T20:42:22.504Z,100.00
2022-10-04T20:44:56.773Z,100.00
2022-10-04T20:47:34.208Z,100.00
2022-10-04T20:50:03.743Z,100.00
2022-10-04T20:52:33.950Z,100.00
2022-10-04T20:55:08.769Z,100.00
2022-10-04T20:57:40.711Z,100.00
2022-10-04T21:00:22.090Z,100.00
2022-10-04T21:02:50.350Z,100.00
2022-10-04T21:05:25.384Z,100.00
2022-10-04T21:08:22.642Z,100.00
2022-10-04T21:11:05.456Z,100.00
2022-10-04T21:13:44.055Z,100.00
2022-10-04T21:16:11.985Z,100.00
2022-10-04T21:18:39.883Z,100.00
2022-10-04T21:21:10.697Z,100.00
2022-10-04T21:23:38.557Z,100.00
2022-10-04T21:26:24.987Z,100.00
2022-10-04T21:28:54.691Z,100.00
2022-10-04T21:31:22.640Z,100.00
2022-10-04T21:33:50.463Z,100.00
2022-10-04T21:36:18.272Z,100.00
2022-10-04T21:38:46.068Z,100.00
2022-10-04T21:41:13.912Z,100.00
2022-10-04T21:43:43.089Z,100.00
2022-10-04T21:46:10.943Z,100.00
2022-10-04T21:48:38.787Z,100.00
2022-10-04T21:51:06.628Z,100.00
2022-10-04T21:53:34.427Z,100.00
2022-10-04T21:56:03.392Z,100.00
2022-10-04T21:58:31.208Z,100.00
2022-10-04T22:01:00.576Z,100.00
2022-10-04T22:03:28.447Z,100.00
2022-10-04T22:05:56.276Z,100.00
2022-10-04T22:08:24.139Z,100.00
2022-10-04T22:10:55.482Z,100.00
2022-10-04T22:13:26.785Z,100.00
2022-10-04T22:15:55.224Z,100.00
2022-10-04T22:18:24.449Z,100.00
2022-10-04T22:20:52.249Z,100.00
2022-10-04T22:23:21.759Z,100.00
2022-10-04T22:25:50.168Z,100.00
2022-10-04T22:28:22.140Z,100.00
2022-10-04T22:30:50.572Z,100.00
2022-10-04T22:33:32.242Z,100.00
2022-10-04T22:36:06.599Z,100.00
2022-10-04T22:38:34.436Z,100.00
2022-10-04T22:41:02.321Z,100.00
2022-10-04T22:43:30.149Z,100.00
2022-10-04T22:45:58.306Z,100.00
2022-10-04T22:48:29.006Z,100.00
2022-10-04T22:50:56.961Z,100.00
2022-10-04T22:53:25.057Z,100.00
2022-10-04T22:55:55.913Z,100.00
2022-10-04T22:58:24.163Z,100.00
2022-10-04T23:00:52.060Z,100.00
2022-10-04T23:03:28.945Z,100.00
2022-10-04T23:05:56.769Z,100.00
2022-10-04T23:08:24.621Z,100.00
2022-10-04T23:10:54.783Z,100.00
2022-10-04T23:13:24.858Z,100.00
2022-10-04T23:15:53.413Z,100.00
2022-10-04T23:18:21.311Z,100.00
2022-10-04T23:20:57.956Z,100.00
2022-10-04T23:23:28.476Z,100.00
2022-10-04T23:25:56.325Z,100.00
2022-10-04T23:28:25.485Z,100.00
2022-10-04T23:31:03.348Z,100.00
2022-10-04T23:33:31.424Z,100.00
2022-10-04T23:36:00.682Z,100.00
2022-10-04T23:38:30.413Z,100.00
2022-10-04T23:40:58.329Z,100.00
2022-10-04T23:43:26.894Z,100.00
2022-10-04T23:45:57.034Z,100.00
2022-10-04T23:48:27.447Z,100.00
2022-10-04T23:50:57.325Z,100.00
2022-10-04T23:53:29.240Z,100.00
2022-10-04T23:55:58.767Z,100.00
2022-10-04T23:58:35.049Z,100.00
